Latest Weather Observations for Tamworth Airport

IDN60801

Issued at 11:34 pm EST Sunday 1 May 2016 (issued every 30 minutes, with the page automatically refreshed every 10 minutes)

About weather observations | Map of weather stations | Latest weather observations for NSW | Other Formats
Station Details ID: 055325 Name: TAMWORTH AIRPORT AWS Lat: -31.07 Lon: 150.84 Height: 394.9 m
Data from the previous 72 hours. | See also: Recent months at Tamworth Airport
Date/Time
EST
Temp
°C
App
Temp
°C
Dew
Point
Rel
Hum
%
Delta-T
°C
Wind Press
QNH
hPa
Press
MSL
hPa
Rain
since 9 am
mm
Dir
 
Spd
km/h
Gust
km/h
Spd
kts
Gust
kts
01/11:30pm 13.8 13.3 12.5 92 0.7 SE 7 9 4 5 1019.1 1018.7 20.2
01/11:00pm 12.3 12.2 10.7 90 0.8 SSE 2 6 1 3 1019.2 1018.8 20.2
01/10:30pm 13.0 12.4 11.6 91 0.8 SE 6 9 3 5 1019.3 1018.9 20.2
01/10:25pm 13.7 14.0 12.3 91 0.8 ESE 2 9 1 5 1019.3 1018.9 20.2
01/10:00pm 13.9 13.5 12.5 91 0.8 ESE 6 7 3 4 1019.3 1018.9 20.2
01/09:51pm 14.4 14.2 13.0 91 0.8 ESE 6 7 3 4 1019.3 1018.9 20.2
01/09:30pm 13.7 13.2 12.1 90 0.9 SE 6 9 3 5 1019.2 1018.8 20.2
01/09:24pm 14.1 13.7 12.5 90 0.9 ESE 6 7 3 4 1019.2 1018.8 20.2
01/09:00pm 14.4 13.9 12.8 90 0.9 W 7 9 4 5 1019.1 1018.7 20.2
01/08:56pm 14.5 13.7 12.9 90 0.9 W 9 9 5 5 1019.1 1018.7 20.2
01/08:30pm 14.7 14.3 13.1 90 0.9 WNW 7 9 4 5 1019.3 1018.9 20.2
01/08:00pm 14.8 14.0 13.0 89 1.0 NW 9 11 5 6 1019.0 1018.6 20.2
01/07:30pm 15.0 14.3 13.2 89 1.0 WNW 9 11 5 6 1019.0 1018.6 20.2
01/07:00pm 15.7 15.6 13.9 89 1.0 NW 7 9 4 5 1019.0 1018.6 20.2
01/06:30pm 15.8 15.4 14.0 89 1.0 NNW 9 11 5 6 1019.0 1018.6 20.2
01/06:00pm 16.4 16.6 14.2 87 1.3 W 6 7 3 4 1018.7 1018.3 20.2
01/05:30pm 16.9 18.3 14.5 86 1.4 CALM 0 4 0 2 1018.4 1018.0 20.2
01/05:00pm 17.2 17.4 14.7 85 1.5 NNW 7 7 4 4 1018.2 1017.8 20.2
01/04:30pm 17.5 18.0 15.0 85 1.5 NW 6 9 3 5 1018.5 1018.1 20.2
01/04:00pm 17.7 17.7 15.1 85 1.5 NNW 9 13 5 7 1018.3 1017.9 20.2
01/03:30pm 17.8 17.4 15.2 85 1.5 NNW 11 13 6 7 1018.0 1017.7 20.2
01/03:00pm 18.0 18.1 15.6 86 1.4 NNW 9 13 5 7 1018.3 1017.9 20.2
01/02:30pm 17.9 17.5 15.3 85 1.5 N 11 13 6 7 1017.5 1017.2 20.2
01/02:00pm 18.0 18.6 15.8 87 1.3 NNW 7 11 4 6 1017.7 1017.4 20.2
01/01:30pm 17.9 17.0 15.9 88 1.2 NNW 15 20 8 11 1018.3 1017.9 20.2
01/01:18pm 17.9 17.0 15.9 88 1.2 N 15 20 8 11 1018.3 1017.9 20.2
01/01:00pm 17.9 17.0 15.9 88 1.2 N 15 20 8 11 1018.4 1018.0 20.2
01/12:30pm 17.6 17.1 15.9 90 1.0 N 13 19 7 10 1018.4 1018.0 20.2
01/12:29pm 17.5 17.0 15.8 90 1.0 N 13 19 7 10 1018.4 1018.0 20.2
01/12:00pm 17.0 16.0 15.5 91 0.9 NNE 15 20 8 11 1018.9 1018.5 19.8
01/11:30am 16.6 15.4 15.1 91 0.9 NNE 15 19 8 10 1019.2 1018.8 19.0
01/11:25am 16.6 15.4 15.1 91 0.9 NNE 15 20 8 11 1019.3 1018.9 19.0
01/11:17am 16.6 15.4 15.1 91 0.9 NNE 15 20 8 11 1019.3 1018.9 18.8
01/11:00am 16.6 16.6 15.1 91 0.9 NNW 9 13 5 7 1020.1 1019.8 17.6
01/10:56am 16.6 16.6 15.1 91 0.9 NNW 9 11 5 6 1020.5 1020.2 17.0
01/10:30am 16.7 15.9 15.1 90 0.9 NNE 13 15 7 8 1020.0 1019.7 10.6
01/10:05am 17.1 17.5 15.3 89 1.1 N 7 11 4 6 1019.9 1019.6 7.6
01/10:00am 17.1 17.5 15.3 89 1.1 N 7 11 4 6 1019.9 1019.6 7.4
01/09:55am 17.0 17.6 15.3 90 1.0 NW 6 11 3 6 1019.8 1018.8 7.4
01/09:30am 16.6 14.4 14.8 89 1.1 WSW 20 32 11 17 1019.9 1018.9 6.2
01/09:20am 16.8 13.8 14.8 88 1.2 WSW 24 37 13 20 1020.1 1019.1 4.8
01/09:15am 16.8 13.0 14.8 88 1.2 WSW 28 46 15 25 1020.1 1019.1 4.2
01/09:09am 16.9 13.0 14.5 86 1.4 W 28 46 15 25 1020.3 1019.3 3.4
01/09:06am 17.3 14.7 14.9 86 1.4 W 22 46 12 25 1020.4 1019.4 2.4
01/09:00am 18.1 17.3 16.1 88 1.2 WNW 15 20 8 11 1019.9 1018.9 7.8
01/08:54am 18.1 17.7 16.1 88 1.2 WNW 13 15 7 8 1019.8 1018.8 6.8
01/08:30am 18.0 17.9 16.0 88 1.2 WNW 11 13 6 7 1019.7 1018.7 5.6
01/08:28am 18.0 17.9 16.0 88 1.2 WNW 11 15 6 8 1019.7 1018.7 5.6
01/08:06am 18.0 15.4 15.8 87 1.3 WNW 24 39 13 21 1019.7 1018.7 4.8
01/08:00am 18.6 17.4 16.2 86 1.5 NNE 17 24 9 13 1018.7 1017.6 4.0
01/07:30am 18.0 16.4 16.0 88 1.2 NNE 19 24 10 13 1018.5 1017.4 3.6
01/07:00am 16.0 16.3 14.5 91 0.9 SSW 6 9 3 5 1018.6 1017.5 3.4
01/06:30am 16.0 15.8 14.7 92 0.8 SSE 9 11 5 6 1017.8 1016.8 3.4
01/06:00am 15.1 15.1 13.6 91 0.9 S 6 9 3 5 1017.7 1016.7 3.4
01/05:30am 15.3 15.2 13.8 91 0.9 S 7 9 4 5 1017.5 1016.5 3.4
01/05:22am 15.0 14.8 13.5 91 0.9 S 7 9 4 5 1017.6 1016.6 3.4
01/05:21am 15.0 14.8 13.5 91 0.9 S 7 9 4 5 1017.6 1016.6 3.4
01/05:00am 14.8 15.8 13.3 91 0.8 CALM 0 0 0 0 1017.5 1016.5 3.4
01/04:30am 14.5 15.4 12.9 90 0.9 CALM 0 0 0 0 1017.3 1016.3 3.4
01/04:00am 14.9 15.2 13.4 91 0.8 NW 4 6 2 3 1017.2 1016.2 3.4
01/03:45am 14.5 14.1 12.9 90 0.9 NW 7 9 4 5 1017.3 1016.3 3.4
01/03:43am 14.5 14.0 12.7 89 1.0 NW 7 9 4 5 1017.3 1016.3 3.4
01/03:30am 15.1 16.1 13.3 89 1.0 CALM 0 2 0 1 1017.3 1016.3 3.4
01/03:12am 15.5 16.7 13.7 89 1.0 CALM 0 6 0 3 1017.1 1016.0 3.4
01/03:00am 15.8 16.8 14.2 90 0.9 ENE 2 6 1 3 1017.2 1016.2 3.4
01/02:54am 15.8 15.9 14.0 89 1.0 ENE 6 7 3 4 1017.3 1016.3 3.4
01/02:30am 16.5 16.9 14.7 89 1.1 SSE 6 9 3 5 1017.5 1016.5 3.4
01/02:00am 17.0 15.9 15.3 90 1.0 S 15 17 8 9 1017.7 1016.7 3.4
01/01:30am 17.1 16.8 15.4 90 1.0 S 11 15 6 8 1017.7 1016.7 3.2
01/01:00am 16.9 16.9 15.2 90 1.0 SE 9 11 5 6 1017.9 1016.9 3.2
01/12:30am 17.1 16.8 15.4 90 1.0 ESE 11 13 6 7 1018.0 1017.0 3.2
01/12:00am 17.4 17.2 15.7 90 1.0 SSE 11 13 6 7 1018.9 1017.8 3.2
 
Date/Time
EST
Temp
°C
App
Temp
°C
Dew
Point
Rel
Hum
%
Delta-T
°C
Wind Press
QNH
hPa
Press
MSL
hPa
Rain
since 9 am
mm
Dir
 
Spd
km/h
Gust
km/h
Spd
kts
Gust
kts
30/11:30pm 17.6 17.8 15.8 89 1.1 SE 9 9 5 5 1019.0 1017.9 3.2
30/11:00pm 18.1 18.5 16.4 90 1.0 S 9 11 5 6 1019.3 1018.2 3.2
30/10:30pm 17.5 19.4 15.7 89 1.1 CALM 0 0 0 0 1019.6 1018.6 3.2
30/10:00pm 17.8 19.8 16.0 89 1.1 CALM 0 0 0 0 1019.7 1018.7 3.2
30/09:30pm 17.7 19.6 15.7 88 1.2 CALM 0 0 0 0 1020.1 1019.1 3.2
30/09:00pm 18.3 19.1 16.3 88 1.2 SSE 7 7 4 4 1020.0 1019.0 3.2
30/08:30pm 18.5 19.4 16.5 88 1.2 S 7 9 4 5 1020.0 1019.0 3.2
30/08:00pm 18.9 19.2 16.9 88 1.2 S 11 13 6 7 1019.6 1018.6 3.2
30/07:30pm 19.0 19.7 17.0 88 1.2 S 9 13 5 7 1019.4 1018.3 3.2
30/07:00pm 19.3 20.0 17.1 87 1.4 SSE 9 11 5 6 1019.5 1018.5 3.2
30/06:30pm 19.3 20.0 17.1 87 1.4 E 9 15 5 8 1019.4 1018.3 3.2
30/06:00pm 19.3 19.6 17.1 87 1.4 NNE 11 15 6 8 1019.5 1018.5 3.2
30/05:30pm 19.7 21.5 17.3 86 1.5 - 4 11 2 6 1019.5 1018.5 3.0
30/05:00pm 19.6 20.1 17.4 87 1.4 NE 11 17 6 9 1019.2 1018.1 3.0
30/04:52pm 19.8 20.9 17.2 85 1.6 SSW 7 15 4 8 1019.4 1018.3 2.8
30/04:30pm 19.7 18.4 16.7 83 1.8 SSW 19 28 10 15 1018.9 1017.8 1.8
30/04:22pm 20.2 18.6 16.6 80 2.2 SW 20 30 11 16 1018.8 1017.7 0.6
30/04:00pm 21.9 20.5 15.5 67 3.9 SW 17 32 9 17 1018.3 1017.2 0.0
30/03:30pm 25.7 22.6 13.5 46 7.3 N 22 35 12 19 1017.2 1016.2 0.0
30/03:00pm 25.7 21.1 13.5 46 7.3 NNW 30 39 16 21 1017.3 1016.3 0.0
30/02:30pm 27.4 24.3 13.4 42 8.4 NNW 22 33 12 18 1017.3 1016.3 0.0
30/02:00pm 26.6 23.8 13.3 43 7.9 NNW 20 30 11 16 1017.8 1016.8 0.0
30/01:30pm 28.6 25.2 13.7 40 9.0 NNW 24 37 13 20 1017.8 1016.8 0.0
30/01:00pm 27.4 24.7 13.4 42 8.4 NNW 20 32 11 17 1018.5 1017.4 0.0
30/12:30pm 26.3 23.5 13.1 44 7.9 NNW 20 32 11 17 1018.9 1017.8 0.0
30/12:00pm 26.6 23.1 13.3 43 7.9 NNW 24 43 13 23 1019.5 1018.5 0.0
30/11:30am 25.8 22.7 13.3 46 7.4 NNW 22 32 12 17 1020.2 1019.2 0.0
30/11:00am 26.5 23.7 14.3 47 7.4 N 22 33 12 18 1020.8 1019.7 0.0
30/10:30am 24.2 20.1 12.8 49 6.7 NNW 26 33 14 18 1021.5 1020.4 0.0
30/10:00am 23.4 20.9 13.6 54 5.8 NNW 19 28 10 15 1021.8 1020.8 0.0
30/09:30am 21.0 20.4 11.6 55 5.3 N 6 11 3 6 1022.0 1021.0 0.0
30/09:00am 20.5 20.5 11.2 55 5.2 S 2 7 1 4 1022.2 1021.2 -
30/08:30am 19.0 17.6 9.5 54 5.1 SE 7 9 4 5 1022.4 1021.4 -
30/08:00am 17.8 16.4 8.9 56 4.7 ESE 6 9 3 5 1022.3 1021.3 -
30/07:30am 16.6 16.7 10.0 65 3.5 CALM 0 6 0 3 1022.2 1021.2 -
30/07:00am 13.3 11.6 8.4 72 2.5 WSW 7 9 4 5 1021.9 1020.9 -
30/06:30am 12.2 10.4 7.3 72 2.4 W 6 9 3 5 1021.6 1020.5 -
30/06:00am 13.0 12.5 7.9 71 2.6 CALM 0 0 0 0 1021.2 1020.1 -
30/05:30am 14.6 12.7 7.6 63 3.5 SSE 7 9 4 5 1020.9 1019.8 -
30/05:00am 14.8 13.0 7.8 63 3.5 S 7 11 4 6 1020.9 1019.8 -
30/04:30am 15.1 14.0 8.3 64 3.5 SSE 4 9 2 5 1020.6 1019.6 -
30/04:00am 15.1 13.1 8.6 65 3.4 SSE 9 13 5 7 1020.5 1019.5 -
30/03:30am 14.2 12.2 7.3 63 3.5 S 7 9 4 5 1020.4 1019.4 -
30/03:00am 14.1 11.9 7.9 66 3.1 SSW 9 9 5 5 1020.3 1019.3 0.0
30/02:30am 14.7 12.4 7.5 62 3.6 SSW 9 11 5 6 1020.5 1019.5 -
30/02:00am 14.4 12.4 7.0 61 3.7 ESE 7 13 4 7 1020.5 1019.5 -
30/01:30am 14.1 11.3 6.9 62 3.6 S 11 15 6 8 1020.8 1019.7 -
30/01:00am 13.0 11.5 6.8 66 3.0 SW 4 11 2 6 1021.1 1020.0 -
30/12:30am 13.0 12.2 6.4 64 3.2 CALM 0 0 0 0 1021.0 1019.9 -
30/12:00am 13.6 12.6 7.2 65 3.2 SSW 2 6 1 3 1021.2 1020.1 -
 
Date/Time
EST
Temp
°C
App
Temp
°C
Dew
Point
Rel
Hum
%
Delta-T
°C
Wind Press
QNH
hPa
Press
MSL
hPa
Rain
since 9 am
mm
Dir
 
Spd
km/h
Gust
km/h
Spd
kts
Gust
kts
29/11:30pm 15.2 11.7 7.0 58 4.1 SSE 15 17 8 9 1021.3 1020.2 -
29/11:00pm 16.2 13.1 7.4 56 4.5 S 13 15 7 8 1021.4 1020.3 -
29/10:30pm 15.4 12.6 6.9 57 4.3 SW 11 13 6 7 1021.7 1020.7 -
29/10:00pm 14.8 13.8 5.6 54 4.5 CALM 0 7 0 4 1021.4 1020.3 -
29/09:30pm 15.4 13.4 6.4 55 4.5 NNE 6 9 3 5 1021.4 1020.3 -
29/09:00pm 16.0 13.4 5.9 51 5.0 SSE 9 13 5 7 1021.5 1020.4 0.0
29/08:30pm 17.5 14.7 7.0 50 5.3 SE 11 11 6 6 1021.4 1020.3 -
29/08:00pm 18.7 16.5 6.2 44 6.3 ENE 7 9 4 5 1020.9 1019.8 -
29/07:30pm 19.0 17.9 5.1 40 6.9 CALM 0 0 0 0 1021.0 1019.9 -
29/07:00pm 21.2 19.4 7.1 40 7.3 SE 6 9 3 5 1020.9 1019.8 -
29/06:30pm 20.2 17.8 5.1 37 7.5 SE 7 11 4 6 1020.8 1019.7 -
29/06:00pm 21.9 19.6 5.8 35 8.2 SSE 7 9 4 5 1020.5 1019.5 -
29/05:30pm 23.7 21.6 5.6 31 9.3 S 6 7 3 4 1020.3 1019.3 -
29/05:00pm 24.6 22.5 5.9 30 9.7 S 6 7 3 4 1019.8 1018.8 -
29/04:30pm 25.4 23.3 5.6 28 10.3 SW 6 9 3 5 1019.7 1018.7 -
29/04:00pm 26.4 25.6 6.4 28 10.6 CALM 0 0 0 0 1019.4 1018.3 -
29/03:30pm 26.5 24.8 6.0 27 10.8 SW 4 11 2 6 1019.7 1018.7 -
29/03:00pm 27.5 24.6 6.3 26 11.3 WNW 11 15 6 8 1019.9 1018.9 -
29/02:30pm 26.5 24.0 6.5 28 10.7 NW 9 17 5 9 1019.9 1018.9 -
29/02:00pm 26.5 23.6 6.5 28 10.6 WNW 11 20 6 11 1020.1 1019.1 -
29/01:30pm 26.1 23.6 6.7 29 10.3 WNW 9 15 5 8 1020.4 1019.4 -
29/01:00pm 26.3 23.8 6.4 28 10.5 NW 9 17 5 9 1020.8 1019.7 -
29/12:30pm 25.9 23.9 7.0 30 10.1 W 7 13 4 7 1021.2 1020.1 -
29/12:00pm 26.1 22.9 6.7 29 10.3 NW 13 22 7 12 1022.0 1021.0 -
29/11:30am 25.7 22.3 7.8 32 9.7 N 15 22 8 12 1022.7 1021.7 -
29/11:00am 25.3 23.1 9.2 36 8.9 N 11 19 6 10 1023.3 1022.3 -
29/10:30am 23.7 - 8.9 39 8.1 - - - - - 1024.1 1023.1 -
29/10:00am 22.8 - 9.9 44 7.1 - - - - - 1024.4 1023.4 -
29/09:30am 21.0 20.1 10.5 51 5.8 WNW 6 13 3 7 1025.1 1024.1 0.0
29/09:00am 19.7 19.1 10.4 55 5.1 SW 4 9 2 5 1025.0 1024.0 0.0
29/08:30am 18.4 18.5 10.0 58 4.6 CALM 0 0 0 0 1024.9 1023.9 0.0
29/08:00am 16.9 15.8 10.7 67 3.4 SE 7 9 4 5 1025.0 1024.0 0.0
29/07:30am 12.8 12.4 9.8 82 1.6 SW 2 6 1 3 1025.0 1024.0 0.0
29/07:00am 10.6 8.9 8.2 85 1.2 S 7 9 4 5 1024.7 1023.7 0.0
29/06:30am 9.8 8.6 7.9 88 0.9 SSW 4 7 2 4 1024.4 1023.4 0.0
29/06:00am 9.9 8.5 7.2 83 1.3 ESE 4 7 2 4 1024.2 1023.2 0.0
29/05:30am 11.0 8.8 7.9 81 1.5 ESE 9 9 5 5 1024.2 1023.2 0.0
29/05:00am 12.1 9.9 9.5 84 1.3 S 11 13 6 7 1024.0 1023.0 0.0
29/04:30am 11.5 9.6 9.1 85 1.2 SW 9 13 5 7 1024.0 1023.0 0.0
29/04:00am 11.0 8.9 8.1 82 1.4 WSW 9 9 5 5 1023.7 1022.6 0.0
29/03:30am 13.4 11.0 10.0 80 1.8 SSE 13 15 7 8 1023.5 1022.4 0.0
29/03:00am 13.5 10.7 9.9 79 1.9 SSE 15 15 8 8 1023.6 1022.5 0.0
29/02:30am 14.1 11.9 10.9 81 1.7 S 13 15 7 8 1023.6 1022.5 0.0
29/02:00am 12.4 11.0 8.7 78 1.9 S 6 11 3 6 1023.5 1022.4 0.0
29/01:30am 14.2 12.2 10.0 76 2.2 ESE 11 13 6 7 1023.6 1022.5 0.0
29/01:00am 14.4 12.4 10.0 75 2.3 SE 11 13 6 7 1023.8 1022.7 0.0
29/12:30am 14.5 12.1 9.9 74 2.4 SSE 13 15 7 8 1023.9 1022.9 0.0
29/12:00am 14.7 12.3 9.9 73 2.5 SSE 13 15 7 8 1024.1 1023.1 0.0

Other Formats:

Comma delimited format used in spreadsheet applications
http://www.bom.gov.au/fwo/IDN60801/IDN60801.95762.axf

JavaScript Object Notation format (JSON) in row-major order
http://www.bom.gov.au/fwo/IDN60801/IDN60801.95762.json